Salley, SC (29137)

2:41 PM EDT on August 29, 2016 (GMT -0400)
Pendleton Field | | Change Station

Elev 354 ft 33.69 °N, 81.23 °W | Updated 16 seconds ago

Overcast
Overcast
90.5 °F
Feels Like 95 °F
N
4.5
Wind Variable Wind from NW
Gusts 11.4 mph

Today
High -- | Low -- °F
--% Chance of Precip.
Yesterday
High -- | Low -- °F
Precip. -- in
Pressure 30.13 in
Visibility 10.0 miles
Clouds Scattered Clouds 3800 ft
Mostly Cloudy 4700 ft
Mostly Cloudy 6000 ft
Heat Index 95 °F
Dew Point 69 °F
Humidity 49%
Rainfall 0.00 in
Snow Depth Not available.
6:57 AM 7:53 PM
Waning Crescent, 7% visible
METAR KAIK 291835Z AUTO 04014G18KT 10SM TS SCT038 BKN047 BKN060 29/21 A3013 RMK AO2 LTG DSNT SE
Pressure 30.13 in
Visibility 10.0 miles
Clouds Scattered Clouds 3800 ft
Mostly Cloudy 4700 ft
Mostly Cloudy 6000 ft
Heat Index 95 °F
Dew Point 69 °F
Humidity 49%
Rainfall 0.00 in
Snow Depth Not available.
6:57 AM 7:53 PM
Waning Crescent, 7% visible
METAR KAIK 291835Z AUTO 04014G18KT 10SM TS SCT038 BKN047 BKN060 29/21 A3013 RMK AO2 LTG DSNT SE
Tropical Depression Nine was centered about 170 miles west-southwest of Key West, Florida, as of late Monday morning. The depression may struggle a bit in the southern Gulf of Mexico before finally making a Gulf Coast landfall later this week with soaking rain and gusty winds.

This latest system was designated a tropical depression Sunday after a Hurricane Hunter reconnaissance mission finally found a sufficiently organized low-pressure center with collocated shower and thunderstorm activity.

10-Day Weather Forecast

Almanac

Astronomy

Aug. 29, 2016 Rise Set
Actual Time
Civil Twilight
Nautical Twilight
Astronomical Twilight
Moon
Length of Visible Light
Length of Day
Tomorrow will be .
, % of the Moon is Illuminated

Today's Extremes

State Highs State Lows

Community

WunderPhotos

Upload Photos

1,935,680 photos uploaded!

WunderBlog® & News

Nearby

Air Quality

  Air Quality AQ Index Pollutant
Not available.

Snow Depth

Station Depth Elevation

Earthquake Activity

City Distance Mag. Time & Date
Minimum magnitude displayed is 2.5.

Coastal Water Temperatures

Place Temperature

Stations

Nearby Weather Stations

Station Location Temp. Windchill Dew Point Humidity Wind Precip. Elev Updated Type
                   

Watches & Warnings

There are currently no watches in effect.